createdAt,value
2023-05-19T00:00:19.669Z,13.03
2023-05-19T00:03:09.557Z,13.44
2023-05-19T00:05:45.633Z,13.36
2023-05-19T00:08:18.046Z,13.43
2023-05-19T00:10:47.353Z,13.61
2023-05-19T00:13:16.542Z,13.27
2023-05-19T00:15:46.113Z,13.61
2023-05-19T00:18:16.609Z,13.55
2023-05-19T00:20:45.635Z,13.30
2023-05-19T00:23:15.674Z,12.98
2023-05-19T00:25:44.970Z,13.28
2023-05-19T00:28:13.478Z,13.23
2023-05-19T00:30:43.762Z,12.97
2023-05-19T00:33:12.583Z,13.36
2023-05-19T00:35:41.802Z,13.42
2023-05-19T00:38:10.492Z,13.50
2023-05-19T00:40:41.369Z,13.45
2023-05-19T00:43:10.031Z,13.66
2023-05-19T00:45:39.026Z,13.47
2023-05-19T00:48:07.790Z,13.21
2023-05-19T00:50:36.874Z,13.49
2023-05-19T00:53:05.594Z,13.66
2023-05-19T00:55:36.639Z,13.74
2023-05-19T00:58:07.472Z,13.78
2023-05-19T01:00:37.528Z,13.94
2023-05-19T01:03:11.478Z,14.01
2023-05-19T01:05:44.863Z,13.54
2023-05-19T01:08:13.746Z,13.63
2023-05-19T01:10:43.056Z,13.62
2023-05-19T01:13:13.254Z,13.82
2023-05-19T01:16:08.999Z,14.18
2023-05-19T01:18:46.821Z,14.18
2023-05-19T01:21:48.688Z,14.43
2023-05-19T01:24:46.915Z,14.38
2023-05-19T01:27:44.135Z,14.55
2023-05-19T01:30:30.102Z,14.28
2023-05-19T01:33:02.510Z,13.83
2023-05-19T01:35:33.053Z,13.85
2023-05-19T01:38:03.316Z,13.46
2023-05-19T01:40:33.701Z,13.51
2023-05-19T01:43:03.579Z,13.79
2023-05-19T01:45:35.749Z,13.56
2023-05-19T01:48:09.254Z,13.72
2023-05-19T01:50:41.373Z,13.93
2023-05-19T01:53:10.690Z,13.43
2023-05-19T01:55:45.891Z,13.76
2023-05-19T01:58:21.887Z,13.77
2023-05-19T02:00:59.422Z,13.95
2023-05-19T02:03:46.226Z,13.79
2023-05-19T02:06:28.892Z,13.45
2023-05-19T02:09:02.159Z,13.66
2023-05-19T02:11:38.111Z,13.59
2023-05-19T02:14:15.002Z,13.58
2023-05-19T02:16:48.415Z,13.61
2023-05-19T02:19:25.812Z,13.69
2023-05-19T02:21:56.788Z,13.46
2023-05-19T02:24:26.130Z,13.56
2023-05-19T02:26:55.453Z,13.37
2023-05-19T02:29:24.497Z,13.42
2023-05-19T02:31:54.621Z,13.80
2023-05-19T02:34:23.630Z,13.92
2023-05-19T02:36:52.311Z,13.82
2023-05-19T02:39:21.160Z,13.77
2023-05-19T02:41:50.053Z,13.85
2023-05-19T02:44:19.110Z,13.38
2023-05-19T02:46:47.873Z,13.26
2023-05-19T02:49:18.296Z,13.14
2023-05-19T02:51:46.986Z,13.07
2023-05-19T02:54:16.090Z,12.08
2023-05-19T02:56:44.622Z,12.48
2023-05-19T02:59:13.761Z,12.43
2023-05-19T03:01:42.434Z,12.44
2023-05-19T03:04:11.612Z,12.04
2023-05-19T03:06:42.296Z,11.72
2023-05-19T03:09:11.613Z,11.60
2023-05-19T03:11:40.301Z,12.29
2023-05-19T03:14:10.078Z,12.52
2023-05-19T03:16:41.344Z,12.94
2023-05-19T03:19:10.859Z,13.39
2023-05-19T03:21:41.781Z,12.45
2023-05-19T03:24:10.738Z,12.38
2023-05-19T03:26:39.516Z,11.71
2023-05-19T03:29:08.587Z,11.41
2023-05-19T03:31:38.897Z,11.70
2023-05-19T03:34:07.855Z,12.08
2023-05-19T03:36:39.902Z,12.33
2023-05-19T03:39:15.373Z,12.56
2023-05-19T03:41:44.356Z,12.56
2023-05-19T03:44:13.226Z,12.72
2023-05-19T03:46:42.419Z,13.12
2023-05-19T03:49:30.641Z,13.63
2023-05-19T03:52:31.215Z,13.57
2023-05-19T03:55:16.485Z,12.77
2023-05-19T03:57:45.524Z,13.38
2023-05-19T04:00:15.330Z,13.35
2023-05-19T04:02:43.996Z,13.12
2023-05-19T04:05:12.959Z,13.35
2023-05-19T04:07:41.768Z,13.46
2023-05-19T04:10:11.412Z,13.11
2023-05-19T04:12:41.393Z,13.43
2023-05-19T04:15:12.521Z,13.20
2023-05-19T04:17:42.369Z,13.41
2023-05-19T04:20:12.953Z,13.57
2023-05-19T04:22:41.569Z,13.73
2023-05-19T04:25:12.004Z,13.35
2023-05-19T04:27:43.022Z,13.57
2023-05-19T04:30:18.539Z,12.21
2023-05-19T04:32:47.573Z,12.61
2023-05-19T04:35:17.684Z,12.39
2023-05-19T04:37:46.884Z,13.03
2023-05-19T04:40:17.517Z,12.81
2023-05-19T04:42:49.903Z,13.03
2023-05-19T04:45:19.805Z,12.04
2023-05-19T04:47:52.826Z,12.46
2023-05-19T04:50:21.842Z,12.38
2023-05-19T04:52:50.584Z,12.29
2023-05-19T04:55:19.844Z,12.28
2023-05-19T04:57:51.661Z,12.29
2023-05-19T05:00:22.982Z,12.43
2023-05-19T05:02:59.761Z,12.43
2023-05-19T05:05:32.087Z,12.50
2023-05-19T05:08:01.228Z,12.76
2023-05-19T05:10:34.388Z,13.08
2023-05-19T05:13:05.400Z,13.06
2023-05-19T05:15:35.682Z,12.49
2023-05-19T05:18:05.860Z,12.05
2023-05-19T05:20:35.751Z,12.47
2023-05-19T05:23:04.962Z,12.59
2023-05-19T05:25:36.230Z,12.78
2023-05-19T05:28:06.827Z,13.21
2023-05-19T05:30:38.441Z,13.09
2023-05-19T05:33:09.614Z,13.01
2023-05-19T05:35:40.931Z,12.70
2023-05-19T05:38:12.214Z,13.15
2023-05-19T05:40:42.492Z,13.21
2023-05-19T05:43:13.190Z,13.54
2023-05-19T05:45:48.659Z,13.51
2023-05-19T05:48:18.030Z,13.48
2023-05-19T05:50:47.397Z,13.93
2023-05-19T05:53:21.906Z,14.19
2023-05-19T05:55:55.020Z,14.46
2023-05-19T05:58:30.049Z,13.63
2023-05-19T06:00:59.774Z,13.94
2023-05-19T06:03:28.763Z,14.33
2023-05-19T06:06:03.338Z,14.68
2023-05-19T06:08:32.057Z,14.93
2023-05-19T06:11:01.433Z,14.97
2023-05-19T06:13:33.133Z,15.07
2023-05-19T06:16:02.867Z,15.21
2023-05-19T06:18:34.914Z,14.47
2023-05-19T06:21:04.441Z,14.71
2023-05-19T06:23:33.205Z,14.99
2023-05-19T06:26:02.475Z,15.24
2023-05-19T06:28:33.822Z,15.52
2023-05-19T06:31:02.887Z,15.38
2023-05-19T06:33:51.954Z,15.30
2023-05-19T06:36:22.903Z,15.23
2023-05-19T06:38:52.999Z,14.82
2023-05-19T06:41:22.725Z,14.78
2023-05-19T06:43:54.697Z,14.77
2023-05-19T06:46:24.223Z,14.75
2023-05-19T06:48:52.826Z,15.05
2023-05-19T06:51:25.092Z,15.01
2023-05-19T06:53:57.647Z,14.85
2023-05-19T06:56:26.925Z,14.59
2023-05-19T06:58:56.935Z,14.39
2023-05-19T07:01:32.417Z,14.88
2023-05-19T07:04:01.985Z,14.85
2023-05-19T07:06:32.062Z,14.90
2023-05-19T07:09:00.723Z,15.06
2023-05-19T07:11:30.846Z,15.45
2023-05-19T07:14:01.371Z,15.08
2023-05-19T07:16:33.547Z,15.28
2023-05-19T07:19:02.316Z,15.49
2023-05-19T07:21:31.643Z,15.60
2023-05-19T07:24:00.387Z,15.11
2023-05-19T07:26:30.716Z,15.18
2023-05-19T07:28:59.491Z,15.43
2023-05-19T07:31:29.991Z,15.09
2023-05-19T07:33:58.814Z,15.10
2023-05-19T07:36:28.087Z,14.63
2023-05-19T07:38:56.875Z,14.33
2023-05-19T07:41:26.275Z,14.42
2023-05-19T07:43:55.006Z,14.58
2023-05-19T07:46:24.086Z,15.06
2023-05-19T07:48:54.149Z,15.17
2023-05-19T07:51:23.075Z,14.91
2023-05-19T07:53:51.838Z,15.29
2023-05-19T07:56:21.330Z,15.65
2023-05-19T07:58:50.147Z,15.86
2023-05-19T08:01:19.010Z,15.99
2023-05-19T08:03:47.727Z,15.69
2023-05-19T08:06:18.064Z,15.09
2023-05-19T08:08:47.369Z,15.69
2023-05-19T08:11:16.574Z,15.71
2023-05-19T08:13:47.669Z,16.03
2023-05-19T08:16:16.833Z,16.31
2023-05-19T08:18:45.610Z,16.55
2023-05-19T08:21:14.640Z,16.72
2023-05-19T08:23:44.605Z,16.86
2023-05-19T08:26:13.713Z,17.11
2023-05-19T08:28:42.226Z,16.83
2023-05-19T08:31:11.344Z,16.66
2023-05-19T08:33:40.261Z,17.01
2023-05-19T08:36:09.320Z,17.39
2023-05-19T08:38:38.069Z,17.02
2023-05-19T08:41:08.545Z,17.18
2023-05-19T08:43:37.227Z,17.49
2023-05-19T08:46:08.326Z,16.40
2023-05-19T08:48:40.528Z,15.32
2023-05-19T08:51:21.886Z,16.12
2023-05-19T08:53:55.297Z,16.37
2023-05-19T08:56:26.935Z,16.32
2023-05-19T08:58:59.835Z,16.31
2023-05-19T09:01:30.404Z,15.93
2023-05-19T09:03:59.743Z,16.57
2023-05-19T09:06:32.415Z,16.79
2023-05-19T09:09:01.107Z,15.27
2023-05-19T09:11:31.399Z,15.15
2023-05-19T09:14:00.176Z,14.38
2023-05-19T09:16:30.447Z,14.14
2023-05-19T09:19:01.183Z,13.80
2023-05-19T09:21:33.973Z,14.39
2023-05-19T09:24:06.820Z,14.91
2023-05-19T09:26:42.264Z,14.80
2023-05-19T09:29:15.016Z,14.21
2023-05-19T09:31:50.644Z,14.74
2023-05-19T09:34:19.563Z,15.45
2023-05-19T09:36:50.845Z,15.95
2023-05-19T09:39:21.103Z,15.41
2023-05-19T09:44:29.713Z,15.96
2023-05-19T09:46:59.917Z,15.79
2023-05-19T09:49:31.416Z,14.53
2023-05-19T09:52:04.422Z,14.45
2023-05-19T09:54:35.405Z,14.78
2023-05-19T09:57:08.567Z,14.81
2023-05-19T09:59:39.029Z,14.35
2023-05-19T10:02:16.490Z,14.98
2023-05-19T10:04:47.687Z,15.61
2023-05-19T10:07:17.791Z,14.67
2023-05-19T10:09:47.293Z,14.51
2023-05-19T10:12:19.252Z,14.65
2023-05-19T10:14:49.900Z,14.85
2023-05-19T10:17:19.039Z,15.67
2023-05-19T10:19:51.728Z,16.19
2023-05-19T10:22:20.609Z,15.95
2023-05-19T10:24:49.451Z,15.96
2023-05-19T10:27:20.451Z,16.61
2023-05-19T10:29:52.989Z,17.33
2023-05-19T10:32:26.068Z,17.83
2023-05-19T10:35:25.682Z,18.48
2023-05-19T10:38:05.702Z,18.11
2023-05-19T10:40:38.109Z,18.25
2023-05-19T10:43:22.453Z,18.37
2023-05-19T10:45:54.409Z,17.20
2023-05-19T10:48:23.634Z,17.63
2023-05-19T10:50:55.200Z,17.58
2023-05-19T10:53:32.462Z,18.40
2023-05-19T10:56:04.359Z,18.90
2023-05-19T10:58:52.185Z,19.30
2023-05-19T11:01:22.325Z,19.66
2023-05-19T11:03:53.901Z,20.18
2023-05-19T11:06:28.309Z,20.45
2023-05-19T11:09:02.016Z,20.84
2023-05-19T11:11:46.897Z,20.13
2023-05-19T11:14:20.058Z,20.76
2023-05-19T11:16:49.816Z,21.22
2023-05-19T11:19:21.084Z,21.61
2023-05-19T11:21:52.517Z,21.32
2023-05-19T11:24:41.884Z,21.70
2023-05-19T11:27:21.185Z,22.11
2023-05-19T11:29:52.405Z,21.75
2023-05-19T11:32:22.736Z,21.93
2023-05-19T11:34:52.487Z,20.90
2023-05-19T11:37:21.314Z,21.57
2023-05-19T11:39:50.987Z,21.62
2023-05-19T11:42:20.202Z,22.19
2023-05-19T11:44:49.125Z,22.70
2023-05-19T11:47:19.252Z,22.92
2023-05-19T11:49:49.985Z,22.36
2023-05-19T11:52:18.904Z,20.78
2023-05-19T11:54:50.134Z,20.10
2023-05-19T11:57:18.983Z,20.92
2023-05-19T11:59:49.844Z,20.78
2023-05-19T12:02:21.491Z,21.24
2023-05-19T12:04:50.723Z,21.61
2023-05-19T12:07:22.919Z,22.17
2023-05-19T12:09:52.891Z,22.56
2023-05-19T12:12:22.636Z,22.98
2023-05-19T12:14:53.093Z,23.05
2023-05-19T12:17:24.214Z,23.53
2023-05-19T12:19:53.628Z,23.78
2023-05-19T12:22:22.426Z,24.04
2023-05-19T12:24:52.836Z,22.86
2023-05-19T12:27:24.282Z,23.38
2023-05-19T12:29:54.945Z,23.40
2023-05-19T12:32:26.601Z,23.87
2023-05-19T12:34:57.489Z,24.45
2023-05-19T12:37:30.120Z,25.25
2023-05-19T12:39:59.274Z,26.06
2023-05-19T12:42:31.514Z,26.77
2023-05-19T12:45:03.078Z,27.45
2023-05-19T12:47:36.618Z,27.29
2023-05-19T12:50:08.083Z,27.28
2023-05-19T12:52:43.478Z,26.03
2023-05-19T12:55:14.173Z,24.19
2023-05-19T12:57:45.307Z,23.54
2023-05-19T13:00:17.601Z,22.52
2023-05-19T13:03:05.716Z,23.69
2023-05-19T13:05:36.814Z,23.76
2023-05-19T13:08:08.082Z,23.15
2023-05-19T13:10:38.458Z,22.46
2023-05-19T13:13:08.333Z,22.08
2023-05-19T13:15:38.905Z,22.60
2023-05-19T13:18:10.395Z,21.88
2023-05-19T13:20:40.798Z,22.06
2023-05-19T13:23:11.811Z,22.20
2023-05-19T13:25:41.237Z,22.17
2023-05-19T13:28:11.000Z,22.91
2023-05-19T13:30:41.599Z,24.24
2023-05-19T13:33:12.032Z,25.11
2023-05-19T13:35:41.205Z,25.08
2023-05-19T13:38:11.263Z,25.65
2023-05-19T13:40:41.072Z,26.13
2023-05-19T13:43:09.913Z,25.14
2023-05-19T13:45:39.270Z,23.36
2023-05-19T13:48:08.616Z,22.68
2023-05-19T13:50:39.174Z,23.37
2023-05-19T13:53:08.342Z,23.78
2023-05-19T13:55:37.562Z,23.49
2023-05-19T13:58:06.233Z,23.98
2023-05-19T14:00:36.279Z,24.29
2023-05-19T14:03:05.248Z,24.61
2023-05-19T14:05:34.638Z,24.78
2023-05-19T14:08:05.580Z,24.71
2023-05-19T14:10:34.819Z,24.90
2023-05-19T14:13:30.243Z,24.96
2023-05-19T14:15:53.312Z,25.16
2023-05-19T14:18:22.036Z,25.18
2023-05-19T14:20:51.146Z,25.13
2023-05-19T14:23:21.707Z,25.18
2023-05-19T14:25:50.693Z,25.21
2023-05-19T14:28:19.399Z,24.72
2023-05-19T14:30:48.575Z,24.62
2023-05-19T14:33:17.574Z,24.56
2023-05-19T14:35:46.703Z,24.23
2023-05-19T14:38:15.460Z,24.05
2023-05-19T14:40:45.894Z,24.06
2023-05-19T14:43:14.479Z,23.84
2023-05-19T14:45:43.366Z,23.89
2023-05-19T14:48:12.481Z,23.16
2023-05-19T14:50:41.591Z,22.84
2023-05-19T14:53:10.539Z,23.23
2023-05-19T14:55:39.488Z,23.04
2023-05-19T14:58:23.585Z,23.25
2023-05-19T15:00:58.244Z,23.42
2023-05-19T15:03:27.105Z,23.80
2023-05-19T15:05:56.104Z,23.73
2023-05-19T15:08:24.782Z,23.89
2023-05-19T15:10:53.694Z,23.57
2023-05-19T15:13:23.694Z,23.71
2023-05-19T15:16:08.308Z,23.69
2023-05-19T15:18:44.352Z,23.34
2023-05-19T15:21:13.410Z,23.33
2023-05-19T15:23:42.423Z,23.44
2023-05-19T15:26:11.380Z,23.51
2023-05-19T15:28:41.582Z,23.54
2023-05-19T15:31:10.663Z,23.58
2023-05-19T15:33:39.286Z,23.67
2023-05-19T15:36:08.187Z,23.58
2023-05-19T15:38:37.724Z,23.56
2023-05-19T15:41:08.961Z,23.51
2023-05-19T15:43:37.612Z,23.56
2023-05-19T15:46:08.582Z,23.33
2023-05-19T15:48:37.649Z,23.37
2023-05-19T15:51:06.947Z,23.30
2023-05-19T15:53:35.679Z,23.47
2023-05-19T15:56:05.095Z,23.60
2023-05-19T15:58:33.907Z,23.43
2023-05-19T16:01:02.992Z,23.47
2023-05-19T16:03:33.118Z,23.23
2023-05-19T16:06:02.402Z,23.29
2023-05-19T16:08:31.432Z,23.27
2023-05-19T16:11:00.518Z,23.06
2023-05-19T16:13:30.456Z,23.06
2023-05-19T16:15:59.346Z,23.14
2023-05-19T16:18:29.235Z,22.97
2023-05-19T16:20:59.570Z,22.48
2023-05-19T16:23:28.254Z,22.41
2023-05-19T16:25:57.603Z,22.52
2023-05-19T16:28:26.368Z,22.60
2023-05-19T16:30:58.568Z,22.60
2023-05-19T16:33:27.436Z,22.36
2023-05-19T16:35:56.401Z,22.40
2023-05-19T16:38:26.815Z,22.61
2023-05-19T16:40:55.842Z,22.72
2023-05-19T16:43:24.515Z,22.72
2023-05-19T16:45:53.719Z,22.75
2023-05-19T16:48:22.678Z,22.88
2023-05-19T16:50:51.604Z,23.09
2023-05-19T16:53:20.222Z,23.22
2023-05-19T16:55:50.591Z,23.47
2023-05-19T16:58:19.209Z,23.89
2023-05-19T17:00:52.174Z,23.95
2023-05-19T17:03:21.181Z,24.13
2023-05-19T17:05:50.223Z,24.41
2023-05-19T17:08:18.907Z,24.77
2023-05-19T17:10:50.515Z,24.96
2023-05-19T17:13:19.174Z,25.15
2023-05-19T17:15:52.463Z,25.23
2023-05-19T17:18:21.493Z,25.33
2023-05-19T17:20:50.716Z,25.22
2023-05-19T17:23:19.401Z,25.07
2023-05-19T17:25:48.362Z,24.97
2023-05-19T17:28:18.304Z,24.89
2023-05-19T17:30:47.255Z,24.79
2023-05-19T17:33:15.904Z,24.86
2023-05-19T17:35:44.941Z,24.75
2023-05-19T17:38:13.613Z,24.53
2023-05-19T17:40:42.626Z,24.30
2023-05-19T17:43:11.349Z,24.02
2023-05-19T17:45:41.859Z,23.90
2023-05-19T17:48:10.514Z,23.61
2023-05-19T17:50:39.591Z,23.46
2023-05-19T17:53:08.692Z,23.18
2023-05-19T17:55:38.450Z,22.93
2023-05-19T17:58:07.609Z,22.77
2023-05-19T18:00:37.183Z,22.40
2023-05-19T18:03:08.280Z,22.16
2023-05-19T18:05:38.008Z,22.06
2023-05-19T18:08:09.609Z,21.77
2023-05-19T18:10:40.933Z,21.70
2023-05-19T18:13:11.497Z,21.36
2023-05-19T18:15:40.388Z,21.11
2023-05-19T18:18:11.024Z,20.95
2023-05-19T18:20:41.232Z,20.40
2023-05-19T18:23:09.884Z,20.32
2023-05-19T18:25:39.009Z,20.16
2023-05-19T18:28:07.855Z,20.15
2023-05-19T18:30:36.848Z,20.17
2023-05-19T18:33:07.326Z,19.77
2023-05-19T18:35:37.942Z,19.35
2023-05-19T18:38:06.558Z,19.27
2023-05-19T18:40:35.726Z,19.10
2023-05-19T18:43:04.654Z,19.08
2023-05-19T18:45:33.626Z,19.26
2023-05-19T18:48:02.240Z,19.14
2023-05-19T18:50:31.516Z,19.17
2023-05-19T18:53:01.810Z,19.10
2023-05-19T18:55:30.821Z,19.04
2023-05-19T18:57:59.410Z,18.96
2023-05-19T19:00:29.123Z,18.91
2023-05-19T19:02:57.824Z,18.90
2023-05-19T19:05:27.002Z,18.86
2023-05-19T19:07:55.707Z,18.89
2023-05-19T19:10:27.118Z,18.92
2023-05-19T19:12:55.870Z,18.89
2023-05-19T19:15:25.530Z,18.78
2023-05-19T19:17:54.281Z,18.75
2023-05-19T19:20:23.319Z,18.73
2023-05-19T19:22:53.063Z,18.71
2023-05-19T19:25:23.537Z,18.66
2023-05-19T19:27:53.831Z,18.59
2023-05-19T19:30:22.872Z,18.57
2023-05-19T19:32:51.535Z,18.41
2023-05-19T19:35:20.941Z,18.06
2023-05-19T19:37:51.749Z,17.86
2023-05-19T19:40:20.970Z,18.02
2023-05-19T19:42:49.773Z,18.08
2023-05-19T19:45:20.928Z,18.13
2023-05-19T19:47:49.908Z,17.86
2023-05-19T19:50:19.187Z,17.86
2023-05-19T19:52:47.910Z,17.85
2023-05-19T19:55:17.055Z,17.93
2023-05-19T19:57:49.298Z,17.87
2023-05-19T20:00:20.122Z,17.57
2023-05-19T20:03:03.578Z,17.12
2023-05-19T20:05:34.015Z,17.31
2023-05-19T20:08:02.721Z,17.42
2023-05-19T20:10:31.749Z,17.46
2023-05-19T20:13:00.554Z,17.47
2023-05-19T20:15:31.904Z,17.51
2023-05-19T20:18:00.645Z,17.50
2023-05-19T20:20:29.884Z,17.57
2023-05-19T20:22:58.553Z,17.67
2023-05-19T20:25:27.401Z,17.69
2023-05-19T20:27:56.180Z,17.68
2023-05-19T20:30:25.167Z,17.71
2023-05-19T20:32:55.254Z,17.56
2023-05-19T20:35:24.521Z,17.61
2023-05-19T20:37:53.083Z,17.57
2023-05-19T20:40:22.116Z,17.62
2023-05-19T20:42:51.945Z,17.54
2023-05-19T20:45:21.350Z,17.53
2023-05-19T20:47:49.973Z,17.55
2023-05-19T20:50:20.485Z,17.58
2023-05-19T20:52:49.183Z,17.61
2023-05-19T20:55:18.678Z,17.55
2023-05-19T20:57:47.432Z,17.39
2023-05-19T21:00:16.860Z,17.39
2023-05-19T21:02:45.790Z,17.34
2023-05-19T21:05:18.240Z,17.39
2023-05-19T21:07:48.287Z,17.26
2023-05-19T21:10:18.001Z,17.14
2023-05-19T21:12:46.790Z,17.11
2023-05-19T21:15:15.805Z,17.07
2023-05-19T21:17:44.464Z,17.04
2023-05-19T21:20:13.967Z,17.03
2023-05-19T21:22:42.626Z,17.06
2023-05-19T21:25:13.130Z,17.06
2023-05-19T21:27:42.209Z,17.07
2023-05-19T21:30:12.315Z,17.00
2023-05-19T21:32:42.225Z,16.77
2023-05-19T21:35:11.435Z,16.66
2023-05-19T21:37:40.429Z,16.58
2023-05-19T21:40:10.224Z,16.68
2023-05-19T21:42:40.200Z,16.79
2023-05-19T21:45:09.912Z,16.88
2023-05-19T21:47:38.719Z,16.90
2023-05-19T21:50:09.258Z,16.89
2023-05-19T21:52:38.807Z,16.97
2023-05-19T21:55:09.790Z,17.00
2023-05-19T21:57:38.605Z,17.04
2023-05-19T22:00:13.139Z,17.08
2023-05-19T22:02:42.263Z,17.12
2023-05-19T22:05:11.838Z,17.20
2023-05-19T22:07:40.642Z,16.70
2023-05-19T22:10:10.200Z,16.25
2023-05-19T22:12:38.819Z,16.40
2023-05-19T22:15:10.843Z,16.56
2023-05-19T22:17:39.547Z,16.69
2023-05-19T22:20:09.625Z,16.66
2023-05-19T22:22:38.305Z,16.65
2023-05-19T22:25:08.369Z,16.77
2023-05-19T22:27:36.996Z,16.86
2023-05-19T22:30:07.232Z,16.76
2023-05-19T22:32:37.179Z,16.76
2023-05-19T22:35:08.378Z,16.75
2023-05-19T22:37:37.079Z,16.69
2023-05-19T22:40:07.262Z,16.69
2023-05-19T22:42:35.907Z,16.73
2023-05-19T22:45:05.439Z,16.75
2023-05-19T22:47:34.334Z,16.76
2023-05-19T22:50:05.705Z,16.78
2023-05-19T22:52:34.506Z,16.74
2023-05-19T22:55:03.768Z,16.73
2023-05-19T22:57:32.964Z,16.68
2023-05-19T23:00:02.081Z,16.59
2023-05-19T23:02:31.572Z,16.47
2023-05-19T23:05:01.059Z,16.37
2023-05-19T23:07:31.498Z,16.39
2023-05-19T23:10:00.510Z,16.33
2023-05-19T23:12:29.130Z,16.34
2023-05-19T23:14:58.178Z,16.30
2023-05-19T23:17:26.897Z,16.27
2023-05-19T23:19:55.923Z,16.32
2023-05-19T23:22:24.668Z,16.32
2023-05-19T23:24:54.931Z,16.33
2023-05-19T23:27:23.448Z,16.39
2023-05-19T23:29:52.977Z,16.30
2023-05-19T23:32:21.720Z,16.28
2023-05-19T23:34:50.616Z,16.30
2023-05-19T23:37:19.386Z,16.02
2023-05-19T23:39:48.422Z,16.05
2023-05-19T23:42:18.444Z,16.07
2023-05-19T23:44:47.367Z,16.12
2023-05-19T23:47:15.999Z,15.99
2023-05-19T23:49:45.127Z,16.00
2023-05-19T23:52:14.227Z,15.86
2023-05-19T23:54:43.254Z,15.87
2023-05-19T23:57:11.976Z,15.83
2023-05-19T23:59:42.382Z,15.85
